Aviation Digital Data Service (ADDS)

Output produced by TAFs form (1153 UTC 27 May 2017)
found at http://www.aviationweather.gov/adds/tafs/
 
METAR text: RJFG 270900Z 26003KT 190V330 9999 FEW025 BKN/// 20/12 Q1012
Conditions at: RJFG (TANEGASHIMA AIRP, JP) observed 0900 UTC 27 May 2017
Temperature: 20.0°C (68°F)
Dewpoint: 12.0°C (54°F) [RH = 60%]
Pressure (altimeter): 29.88 inches Hg (1012.0 mb)
Winds: from the W (260 degrees) at 3 MPH (3 knots; 1.6 m/s)
Visibility: 6 or more miles (10+ km)
Ceiling: at least 12,000 feet AGL
Clouds: few clouds at 2500 feet AGL
Weather: no significant weather observed at this time